Arkadelphia, Arkansas
Current Conditions -  °F | °C
As of 11:56 PM on Wednesday 28 Jan 2015 (Local Time) from KADF Reporting Station
Clear Clear  
Wind Chill: 47°   Ceiling: Unl
Heat Index: 47°   Visibility: 10mi
Dew Point: 46°   Wind: 0mph
Humidity: 96%   Direction: NA
Pressure: 30.07"   Gusts: NA
Location:  34.12°N, 93.05°W
Report Text: KADF 290556Z AUTO 00000KT 10SM CLR 08/08 A3007 RMK AO2 53002 T00830077 10172 20072 402270022 SLP196
Loading
Personal Weather Stations






























Interactive Weather Map New forecast layout! Learn more

10-Day Weather Forecast

Advertisements
Track Severe Weather on mobile